createdAt,value
2019-04-01T00:03:03.168Z,35.40
2019-04-01T00:16:10.410Z,35.70
2019-04-01T00:29:17.672Z,35.90
2019-04-01T00:42:41.738Z,36.60
2019-04-01T00:56:04.533Z,37.20
2019-04-01T01:09:27.316Z,37.60
2019-04-01T01:35:51.810Z,38.10
2019-04-01T01:48:59.048Z,38.30
2019-04-01T02:02:06.274Z,38.50
2019-04-01T02:15:13.497Z,38.70
2019-04-01T02:28:20.771Z,38.90
2019-04-01T02:41:28.028Z,39.10
2019-04-01T03:07:53.245Z,39.40
2019-04-01T03:21:00.474Z,39.60
2019-04-01T03:34:07.692Z,39.80
2019-04-01T03:47:14.910Z,39.90
2019-04-01T04:00:22.133Z,40.00
2019-04-01T04:13:29.464Z,40.20
2019-04-01T04:39:54.724Z,40.40
2019-04-01T04:53:01.926Z,40.50
2019-04-01T05:06:09.199Z,40.70
2019-04-01T05:19:16.470Z,40.70
2019-04-01T05:32:23.753Z,40.60
2019-04-01T05:45:30.944Z,40.50
2019-04-01T05:58:54.398Z,40.50
2019-04-01T06:12:17.213Z,41.10
2019-04-01T06:25:40.065Z,34.40
2019-04-01T06:39:02.834Z,32.50
2019-04-01T06:52:25.675Z,32.00
2019-04-01T07:31:56.561Z,33.50
2019-04-01T07:45:03.800Z,33.00
2019-04-01T07:58:11.080Z,33.50
2019-04-01T08:11:18.282Z,34.50
2019-04-01T08:24:25.898Z,34.90
2019-04-01T08:37:49.895Z,35.40
2019-04-01T09:04:14.411Z,36.70
2019-04-01T09:17:21.688Z,37.50
2019-04-01T09:30:28.978Z,37.00
2019-04-01T09:43:36.233Z,37.10
2019-04-01T10:25:25.253Z,37.80
2019-04-01T10:38:48.006Z,37.80
2019-04-01T10:52:10.827Z,38.00
2019-04-01T11:05:33.753Z,38.70
2019-04-01T11:18:58.089Z,38.60
2019-04-01T11:32:19.326Z,38.90
2019-04-01T11:45:42.185Z,38.30
2019-04-01T11:59:04.981Z,38.40
2019-04-01T12:12:27.811Z,38.50
2019-04-01T12:25:50.589Z,38.50
2019-04-01T12:39:13.414Z,38.50
2019-04-01T13:07:54.259Z,38.50
2019-04-01T13:21:16.490Z,38.50
2019-04-01T13:34:39.342Z,38.40
2019-04-01T13:48:02.106Z,38.50
2019-04-01T14:01:26.294Z,38.40
2019-04-01T14:14:47.764Z,38.40
2019-04-01T14:28:10.629Z,38.50
2019-04-01T14:41:33.379Z,38.30
2019-04-01T14:54:56.211Z,38.30
2019-04-01T15:08:19.389Z,38.40
2019-04-01T15:34:43.559Z,38.20
2019-04-01T15:47:50.838Z,38.00
2019-04-01T16:00:58.148Z,38.30
2019-04-01T16:14:05.438Z,38.50
2019-04-01T16:27:12.667Z,38.60
2019-04-01T16:40:36.796Z,38.70
2019-04-01T16:53:59.614Z,38.80
2019-04-01T17:07:22.487Z,34.60
2019-04-01T17:20:45.242Z,32.00
2019-04-01T17:47:09.810Z,30.20
2019-04-01T18:00:16.988Z,29.90
2019-04-01T18:13:24.331Z,29.50
2019-04-01T18:40:32.728Z,29.40
2019-04-01T18:53:52.307Z,30.00
2019-04-01T19:20:17.332Z,31.00
2019-04-01T19:33:24.854Z,31.20
2019-04-01T19:46:32.181Z,31.70
2019-04-01T19:59:39.460Z,32.00
2019-04-01T20:13:03.663Z,32.60
2019-04-01T20:26:26.406Z,32.90
2019-04-01T20:39:49.258Z,33.20
2019-04-01T20:53:12.033Z,33.30
2019-04-01T21:06:34.860Z,33.30
2019-04-01T21:19:57.600Z,33.50
2019-04-01T21:33:20.481Z,33.20
2019-04-01T21:46:43.663Z,33.50
2019-04-01T22:00:06.089Z,33.50
2019-04-01T22:13:28.893Z,33.70
2019-04-01T22:26:51.753Z,33.80
2019-04-01T22:40:14.528Z,33.80
2019-04-01T22:53:37.366Z,33.90
2019-04-01T23:07:00.149Z,33.80
2019-04-01T23:20:22.964Z,33.50
2019-04-01T23:47:20.512Z,33.10
